createdAt,value
2019-06-07T00:02:42.124Z,68.49
2019-06-07T00:07:43.601Z,68.32
2019-06-07T00:12:45.117Z,68.45
2019-06-07T00:17:46.536Z,69.10
2019-06-07T00:22:48.060Z,69.42
2019-06-07T00:27:49.557Z,69.56
2019-06-07T00:32:51.298Z,70.02
2019-06-07T00:37:52.907Z,70.14
2019-06-07T00:42:54.308Z,70.21
2019-06-07T00:47:56.088Z,70.56
2019-06-07T00:58:00.792Z,70.98
2019-06-07T01:03:02.355Z,71.08
2019-06-07T01:08:03.912Z,71.24
2019-06-07T01:13:05.644Z,71.33
2019-06-07T01:23:51.815Z,71.32
2019-06-07T01:28:13.803Z,71.60
2019-06-07T01:33:15.910Z,71.50
2019-06-07T01:38:21.198Z,71.87
2019-06-07T01:43:26.186Z,72.02
2019-06-07T01:48:27.755Z,72.02
2019-06-07T01:53:29.107Z,72.55
2019-06-07T01:58:31.069Z,72.94
2019-06-07T02:03:33.399Z,72.84
2019-06-07T02:08:35.051Z,73.19
2019-06-07T02:13:36.433Z,73.22
2019-06-07T02:18:58.831Z,73.14
2019-06-07T02:23:41.171Z,73.55
2019-06-07T02:28:45.465Z,73.67
2019-06-07T02:33:45.842Z,73.69
2019-06-07T02:38:47.288Z,73.91
2019-06-07T02:43:48.799Z,73.95
2019-06-07T02:48:50.528Z,74.11
2019-06-07T02:53:52.045Z,74.53
2019-06-07T02:58:53.341Z,74.47
2019-06-07T03:03:54.682Z,74.72
2019-06-07T03:08:56.356Z,74.77
2019-06-07T03:13:57.943Z,75.15
2019-06-07T03:18:59.492Z,74.78
2019-06-07T03:24:00.976Z,75.31
2019-06-07T03:29:02.492Z,75.66
2019-06-07T03:34:03.977Z,75.61
2019-06-07T03:39:06.058Z,75.38
2019-06-07T03:44:08.598Z,76.39
2019-06-07T03:49:10.023Z,75.91
2019-06-07T03:54:11.528Z,75.66
2019-06-07T03:59:12.858Z,75.51
2019-06-07T04:04:14.369Z,75.50
2019-06-07T04:09:15.976Z,75.30
2019-06-07T04:14:17.582Z,75.47
2019-06-07T04:19:18.909Z,75.24
2019-06-07T04:24:20.395Z,74.92
2019-06-07T04:29:32.884Z,74.89
2019-06-07T04:34:25.400Z,74.50
2019-06-07T04:39:26.910Z,74.37
2019-06-07T04:44:28.894Z,73.62
2019-06-07T04:49:33.513Z,73.39
2019-06-07T04:54:37.339Z,73.57
2019-06-07T05:00:10.460Z,73.57
2019-06-07T05:04:43.991Z,73.19
2019-06-07T05:09:45.860Z,72.52
2019-06-07T05:14:47.333Z,71.47
2019-06-07T05:19:48.767Z,71.46
2019-06-07T05:24:50.284Z,70.86
2019-06-07T05:30:09.470Z,70.29
2019-06-07T05:34:55.251Z,70.41
2019-06-07T05:39:56.655Z,70.81
2019-06-07T05:44:58.179Z,70.51
2019-06-07T05:49:59.716Z,70.17
2019-06-07T05:55:01.126Z,70.04
2019-06-07T06:00:03.051Z,69.70
2019-06-07T06:05:06.594Z,67.86
2019-06-07T06:10:08.679Z,66.92
2019-06-07T06:15:10.209Z,67.04
2019-06-07T06:20:11.708Z,66.40
2019-06-07T06:30:16.656Z,67.04
2019-06-07T06:35:21.645Z,66.99
2019-06-07T06:40:23.328Z,66.17
2019-06-07T06:45:24.902Z,65.05
2019-06-07T06:50:26.468Z,63.73
2019-06-07T06:55:27.890Z,63.04
2019-06-07T07:01:05.789Z,62.80
2019-06-07T07:05:54.743Z,61.50
2019-06-07T07:10:55.952Z,61.16
2019-06-07T07:15:58.560Z,59.73
2019-06-07T07:21:00.522Z,59.09
2019-06-07T07:26:02.000Z,58.40
2019-06-07T07:31:03.506Z,58.58
2019-06-07T07:36:23.246Z,57.96
2019-06-07T07:41:15.168Z,56.62
2019-06-07T07:46:28.311Z,55.80
2019-06-07T07:51:15.352Z,55.27
2019-06-07T07:56:16.775Z,54.92
2019-06-07T08:01:18.314Z,54.80
2019-06-07T08:06:19.828Z,54.35
2019-06-07T08:11:21.364Z,54.06
2019-06-07T08:16:22.839Z,54.06
2019-06-07T08:21:26.923Z,52.69
2019-06-07T08:26:27.836Z,51.84
2019-06-07T08:31:29.347Z,51.19
2019-06-07T08:36:41.753Z,51.67
2019-06-07T08:41:34.220Z,51.85
2019-06-07T08:46:35.734Z,51.93
2019-06-07T08:51:37.262Z,52.03
2019-06-07T08:56:38.730Z,50.88
2019-06-07T09:01:40.263Z,51.55
2019-06-07T09:07:02.503Z,51.65
2019-06-07T09:11:45.258Z,51.69
2019-06-07T09:16:46.697Z,51.41
2019-06-07T09:21:48.269Z,50.87
2019-06-07T09:26:50.041Z,50.00
2019-06-07T09:31:53.622Z,49.08
2019-06-07T09:36:58.152Z,48.58
2019-06-07T09:42:00.478Z,48.88
2019-06-07T09:47:22.552Z,49.97
2019-06-07T09:52:10.341Z,48.37
2019-06-07T09:57:16.639Z,48.18
2019-06-07T10:02:13.797Z,48.40
2019-06-07T10:07:30.593Z,49.19
2019-06-07T10:12:19.268Z,49.53
2019-06-07T10:17:21.071Z,48.42
2019-06-07T10:22:22.519Z,48.08
2019-06-07T10:27:24.524Z,47.97
2019-06-07T10:32:26.168Z,48.15
2019-06-07T10:37:28.074Z,48.20
2019-06-07T10:42:30.081Z,47.41
2019-06-07T10:47:31.570Z,47.36
2019-06-07T10:52:33.449Z,47.20
2019-06-07T10:57:34.991Z,46.80
2019-06-07T11:02:36.609Z,46.24
2019-06-07T11:07:38.428Z,45.73
2019-06-07T11:12:39.926Z,45.10
2019-06-07T11:17:41.831Z,44.66
2019-06-07T11:22:43.351Z,44.06
2019-06-07T11:27:45.061Z,44.21
2019-06-07T11:32:47.452Z,44.16
2019-06-07T11:37:48.983Z,43.77
2019-06-07T11:42:52.753Z,44.31
2019-06-07T11:47:54.021Z,44.93
2019-06-07T11:52:55.903Z,44.10
2019-06-07T11:57:57.706Z,43.59
2019-06-07T12:02:59.241Z,43.58
2019-06-07T12:08:01.379Z,43.46
2019-06-07T12:13:02.883Z,43.46
2019-06-07T12:18:04.436Z,44.10
2019-06-07T12:23:06.768Z,44.39
2019-06-07T12:28:08.358Z,44.18
2019-06-07T12:33:11.285Z,43.35
2019-06-07T12:38:14.628Z,43.12
2019-06-07T12:43:17.006Z,42.22
2019-06-07T12:48:21.282Z,41.30
2019-06-07T12:53:26.403Z,42.62
2019-06-07T12:58:33.851Z,41.34
2019-06-07T13:03:29.267Z,41.36
2019-06-07T13:08:31.182Z,41.01
2019-06-07T13:13:33.136Z,40.76
2019-06-07T13:18:35.002Z,41.14
2019-06-07T13:23:36.831Z,42.29
2019-06-07T13:28:38.476Z,42.49
2019-06-07T13:33:40.016Z,43.13
2019-06-07T13:38:42.012Z,43.76
2019-06-07T13:43:44.212Z,44.94
2019-06-07T13:48:45.707Z,46.14
2019-06-07T13:53:47.265Z,46.71
2019-06-07T13:58:49.139Z,46.89
2019-06-07T14:03:50.925Z,47.26
2019-06-07T14:08:52.771Z,47.17
2019-06-07T14:13:54.195Z,46.41
2019-06-07T14:18:55.738Z,45.67
2019-06-07T14:23:57.222Z,45.36
2019-06-07T14:28:59.066Z,46.70
2019-06-07T14:34:00.610Z,47.26
2019-06-07T14:39:03.838Z,47.68
2019-06-07T14:44:06.256Z,47.47
2019-06-07T14:49:07.908Z,47.35
2019-06-07T14:54:09.238Z,47.63
2019-06-07T14:59:10.525Z,48.22
2019-06-07T15:04:12.050Z,52.21
2019-06-07T15:09:14.074Z,57.41
2019-06-07T15:14:16.908Z,61.15
2019-06-07T15:19:18.543Z,63.96
2019-06-07T15:24:20.372Z,64.87
2019-06-07T15:29:21.896Z,65.51
2019-06-07T15:34:23.696Z,66.46
2019-06-07T15:39:25.467Z,66.91
2019-06-07T15:44:26.973Z,66.97
2019-06-07T15:49:30.303Z,67.11
2019-06-07T15:54:32.274Z,66.98
2019-06-07T15:59:35.687Z,66.12
2019-06-07T16:04:37.939Z,65.83
2019-06-07T16:09:40.578Z,66.34
2019-06-07T16:14:43.511Z,66.74
2019-06-07T16:19:46.651Z,66.19
2019-06-07T16:24:48.238Z,65.93
2019-06-07T16:29:50.053Z,65.28
2019-06-07T16:34:51.603Z,65.20
2019-06-07T16:39:53.133Z,65.63
2019-06-07T16:44:54.677Z,65.73
2019-06-07T16:49:57.077Z,67.61
2019-06-07T16:54:58.622Z,68.75
2019-06-07T17:00:00.467Z,69.29
2019-06-07T17:05:02.169Z,69.84
2019-06-07T17:10:04.212Z,70.35
2019-06-07T17:15:07.589Z,71.14
2019-06-07T17:20:08.993Z,71.34
2019-06-07T17:25:10.531Z,71.12
2019-06-07T17:30:12.105Z,70.84
2019-06-07T17:35:13.623Z,70.14
2019-06-07T17:40:15.253Z,69.58
2019-06-07T17:45:16.875Z,69.72
2019-06-07T17:50:18.444Z,70.11
2019-06-07T17:55:20.037Z,69.89
2019-06-07T18:00:29.436Z,69.59
2019-06-07T18:05:25.352Z,68.95
2019-06-07T18:10:34.706Z,68.70
2019-06-07T18:15:38.665Z,68.44
2019-06-07T18:20:40.203Z,69.16
2019-06-07T18:25:42.164Z,68.41
2019-06-07T18:30:43.934Z,67.73
2019-06-07T18:35:47.010Z,68.34
2019-06-07T18:40:49.110Z,68.53
2019-06-07T18:45:53.473Z,68.72
2019-06-07T18:50:56.561Z,68.41
2019-06-07T18:55:58.338Z,68.46
2019-06-07T19:01:00.091Z,68.12
2019-06-07T19:06:02.146Z,68.30
2019-06-07T19:11:03.798Z,68.25
2019-06-07T19:16:05.370Z,68.48
2019-06-07T19:21:08.044Z,68.31
2019-06-07T19:26:10.417Z,68.62
2019-06-07T19:31:12.339Z,68.51
2019-06-07T19:36:13.927Z,68.63
2019-06-07T19:41:19.580Z,68.63
2019-06-07T19:46:20.912Z,68.60
2019-06-07T19:51:23.105Z,68.54
2019-06-07T19:56:24.687Z,68.63
2019-06-07T20:01:26.202Z,68.72
2019-06-07T20:06:29.850Z,68.71
2019-06-07T20:11:33.479Z,68.72
2019-06-07T20:16:41.882Z,68.77
2019-06-07T20:21:45.180Z,68.70
2019-06-07T20:26:47.440Z,68.82
2019-06-07T20:31:50.188Z,68.75
2019-06-07T20:36:53.809Z,68.76
2019-06-07T20:41:57.166Z,68.33
2019-06-07T20:46:59.967Z,67.90
2019-06-07T20:52:03.014Z,67.56
2019-06-07T20:57:06.734Z,67.36
2019-06-07T21:02:09.713Z,67.40
2019-06-07T21:07:11.601Z,67.30
2019-06-07T21:12:13.227Z,67.06
2019-06-07T21:17:15.676Z,66.80
2019-06-07T21:22:17.566Z,66.57
2019-06-07T21:27:19.039Z,66.62
2019-06-07T21:32:20.594Z,66.07
2019-06-07T21:37:24.224Z,65.79
2019-06-07T21:42:25.647Z,65.73
2019-06-07T21:47:27.531Z,65.90
2019-06-07T21:52:29.901Z,65.59
2019-06-07T21:57:31.420Z,65.58
2019-06-07T22:02:33.449Z,65.50
2019-06-07T22:07:34.959Z,65.45
2019-06-07T22:12:36.470Z,65.33
2019-06-07T22:17:38.212Z,65.27
2019-06-07T22:22:39.529Z,65.20
2019-06-07T22:27:41.043Z,65.48
2019-06-07T22:32:42.543Z,65.87
2019-06-07T22:37:44.390Z,65.82
2019-06-07T22:42:45.917Z,65.78
2019-06-07T22:47:48.232Z,65.73
2019-06-07T22:52:49.955Z,65.77
2019-06-07T22:57:51.488Z,65.64
2019-06-07T23:02:53.294Z,65.81
2019-06-07T23:07:55.154Z,65.43
2019-06-07T23:12:57.116Z,65.57
2019-06-07T23:17:58.660Z,65.03
2019-06-07T23:23:00.201Z,65.39
2019-06-07T23:28:01.663Z,65.31
2019-06-07T23:33:03.388Z,65.13
2019-06-07T23:38:05.231Z,65.05
2019-06-07T23:43:06.923Z,65.12
2019-06-07T23:48:08.747Z,65.33
2019-06-07T23:53:11.606Z,65.03
2019-06-07T23:58:13.941Z,64.84
